sensor_id;sensor_type;location;lat;lon;timestamp;P1;durP1;ratioP1;P2;durP2;ratioP2
5199;SDS011;2619;47.868;11.892;2024-03-23T00:54:38;10.00;;;6.10;;
5199;SDS011;2619;47.868;11.892;2024-03-23T00:57:03;6.93;;;4.90;;
5199;SDS011;2619;47.868;11.892;2024-03-23T00:59:29;9.90;;;5.80;;
5199;SDS011;2619;47.868;11.892;2024-03-23T01:01:56;8.17;;;5.20;;
5199;SDS011;2619;47.868;11.892;2024-03-23T01:04:21;5.90;;;4.60;;
5199;SDS011;2619;47.868;11.892;2024-03-23T01:06:47;6.40;;;4.07;;
5199;SDS011;2619;47.868;11.892;2024-03-23T01:09:13;6.30;;;4.67;;
5199;SDS011;2619;47.868;11.892;2024-03-23T01:11:38;5.40;;;4.20;;
5199;SDS011;2619;47.868;11.892;2024-03-23T01:14:04;6.60;;;4.17;;
5199;SDS011;2619;47.868;11.892;2024-03-23T01:16:31;5.40;;;3.83;;
5199;SDS011;2619;47.868;11.892;2024-03-23T01:18:57;5.83;;;4.23;;
5199;SDS011;2619;47.868;11.892;2024-03-23T01:21:22;4.80;;;3.37;;
5199;SDS011;2619;47.868;11.892;2024-03-23T01:23:48;5.03;;;3.93;;
5199;SDS011;2619;47.868;11.892;2024-03-23T01:26:13;4.87;;;4.03;;
5199;SDS011;2619;47.868;11.892;2024-03-23T01:28:39;10.23;;;4.30;;
5199;SDS011;2619;47.868;11.892;2024-03-23T01:31:05;6.80;;;4.10;;
5199;SDS011;2619;47.868;11.892;2024-03-23T01:33:31;4.30;;;3.30;;
5199;SDS011;2619;47.868;11.892;2024-03-23T01:35:56;7.43;;;3.97;;
5199;SDS011;2619;47.868;11.892;2024-03-23T01:38:22;4.77;;;3.03;;
5199;SDS011;2619;47.868;11.892;2024-03-23T01:40:47;5.40;;;3.40;;
5199;SDS011;2619;47.868;11.892;2024-03-23T01:43:13;5.90;;;4.30;;
5199;SDS011;2619;47.868;11.892;2024-03-23T01:45:39;5.13;;;3.93;;
5199;SDS011;2619;47.868;11.892;2024-03-23T01:48:04;5.13;;;4.10;;
5199;SDS011;2619;47.868;11.892;2024-03-23T01:50:31;5.93;;;4.70;;
5199;SDS011;2619;47.868;11.892;2024-03-23T01:52:59;5.73;;;3.80;;
5199;SDS011;2619;47.868;11.892;2024-03-23T01:55:27;5.90;;;4.40;;
5199;SDS011;2619;47.868;11.892;2024-03-23T01:57:53;5.80;;;4.07;;
5199;SDS011;2619;47.868;11.892;2024-03-23T02:00:21;5.87;;;4.40;;
5199;SDS011;2619;47.868;11.892;2024-03-23T02:02:48;5.20;;;3.90;;
5199;SDS011;2619;47.868;11.892;2024-03-23T02:05:13;5.20;;;4.03;;
5199;SDS011;2619;47.868;11.892;2024-03-23T02:07:39;4.90;;;4.10;;
5199;SDS011;2619;47.868;11.892;2024-03-23T02:10:06;6.00;;;4.40;;
5199;SDS011;2619;47.868;11.892;2024-03-23T02:12:32;6.90;;;4.20;;
5199;SDS011;2619;47.868;11.892;2024-03-23T02:14:59;7.07;;;4.40;;
5199;SDS011;2619;47.868;11.892;2024-03-23T02:17:25;5.83;;;3.77;;
5199;SDS011;2619;47.868;11.892;2024-03-23T02:19:50;5.80;;;4.20;;
5199;SDS011;2619;47.868;11.892;2024-03-23T02:22:16;6.30;;;4.43;;
5199;SDS011;2619;47.868;11.892;2024-03-23T02:24:42;6.10;;;4.33;;
5199;SDS011;2619;47.868;11.892;2024-03-23T02:27:07;7.37;;;4.27;;
5199;SDS011;2619;47.868;11.892;2024-03-23T02:29:33;7.47;;;4.57;;
5199;SDS011;2619;47.868;11.892;2024-03-23T02:31:59;6.33;;;4.67;;
5199;SDS011;2619;47.868;11.892;2024-03-23T02:34:24;6.47;;;4.30;;
5199;SDS011;2619;47.868;11.892;2024-03-23T02:36:50;9.70;;;4.40;;
5199;SDS011;2619;47.868;11.892;2024-03-23T02:39:15;5.60;;;4.07;;
5199;SDS011;2619;47.868;11.892;2024-03-23T02:41:41;5.53;;;3.40;;
5199;SDS011;2619;47.868;11.892;2024-03-23T02:44:06;5.83;;;3.40;;
5199;SDS011;2619;47.868;11.892;2024-03-23T02:46:32;6.10;;;3.20;;
5199;SDS011;2619;47.868;11.892;2024-03-23T02:48:58;3.90;;;2.90;;
5199;SDS011;2619;47.868;11.892;2024-03-23T02:51:24;6.00;;;2.40;;
5199;SDS011;2619;47.868;11.892;2024-03-23T02:53:49;4.60;;;2.30;;
5199;SDS011;2619;47.868;11.892;2024-03-23T02:56:15;2.60;;;1.60;;
5199;SDS011;2619;47.868;11.892;2024-03-23T02:58:42;4.47;;;1.80;;
5199;SDS011;2619;47.868;11.892;2024-03-23T03:01:08;3.83;;;2.50;;
5199;SDS011;2619;47.868;11.892;2024-03-23T03:03:33;5.17;;;2.10;;
5199;SDS011;2619;47.868;11.892;2024-03-23T03:05:59;4.00;;;2.33;;
5199;SDS011;2619;47.868;11.892;2024-03-23T03:08:24;4.10;;;1.80;;
5199;SDS011;2619;47.868;11.892;2024-03-23T03:10:50;5.47;;;1.80;;
5199;SDS011;2619;47.868;11.892;2024-03-23T03:13:16;2.70;;;1.60;;
5199;SDS011;2619;47.868;11.892;2024-03-23T03:15:43;3.23;;;2.73;;
5199;SDS011;2619;47.868;11.892;2024-03-23T03:18:08;4.67;;;2.50;;
5199;SDS011;2619;47.868;11.892;2024-03-23T03:20:34;2.80;;;2.00;;
5199;SDS011;2619;47.868;11.892;2024-03-23T03:23:04;2.73;;;1.53;;
5199;SDS011;2619;47.868;11.892;2024-03-23T03:25:30;3.37;;;2.10;;
5199;SDS011;2619;47.868;11.892;2024-03-23T03:27:55;4.03;;;2.40;;
5199;SDS011;2619;47.868;11.892;2024-03-23T03:30:21;3.20;;;2.20;;
5199;SDS011;2619;47.868;11.892;2024-03-23T03:32:46;3.80;;;2.20;;
5199;SDS011;2619;47.868;11.892;2024-03-23T03:35:12;5.37;;;2.00;;
5199;SDS011;2619;47.868;11.892;2024-03-23T03:37:38;4.70;;;2.30;;
5199;SDS011;2619;47.868;11.892;2024-03-23T03:40:03;4.57;;;2.23;;
5199;SDS011;2619;47.868;11.892;2024-03-23T03:42:29;3.23;;;2.47;;
5199;SDS011;2619;47.868;11.892;2024-03-23T03:44:55;5.00;;;2.80;;
5199;SDS011;2619;47.868;11.892;2024-03-23T03:47:20;4.70;;;2.73;;
5199;SDS011;2619;47.868;11.892;2024-03-23T03:49:47;4.70;;;2.50;;
5199;SDS011;2619;47.868;11.892;2024-03-23T03:52:12;4.43;;;2.40;;
5199;SDS011;2619;47.868;11.892;2024-03-23T03:54:38;3.93;;;2.43;;
5199;SDS011;2619;47.868;11.892;2024-03-23T03:57:03;5.27;;;2.60;;
5199;SDS011;2619;47.868;11.892;2024-03-23T03:59:29;4.17;;;2.70;;
5199;SDS011;2619;47.868;11.892;2024-03-23T04:01:55;5.03;;;2.43;;
5199;SDS011;2619;47.868;11.892;2024-03-23T04:04:20;5.03;;;3.10;;
5199;SDS011;2619;47.868;11.892;2024-03-23T04:06:47;5.50;;;3.13;;
5199;SDS011;2619;47.868;11.892;2024-03-23T04:09:13;6.80;;;3.07;;
5199;SDS011;2619;47.868;11.892;2024-03-23T04:11:38;5.60;;;2.87;;
5199;SDS011;2619;47.868;11.892;2024-03-23T04:14:04;5.13;;;2.67;;
5199;SDS011;2619;47.868;11.892;2024-03-23T04:16:32;4.10;;;3.03;;
5199;SDS011;2619;47.868;11.892;2024-03-23T04:19:01;4.10;;;2.40;;
5199;SDS011;2619;47.868;11.892;2024-03-23T04:21:26;4.27;;;2.70;;
5199;SDS011;2619;47.868;11.892;2024-03-23T04:23:52;4.40;;;2.73;;
5199;SDS011;2619;47.868;11.892;2024-03-23T04:26:17;5.13;;;2.93;;
5199;SDS011;2619;47.868;11.892;2024-03-23T04:28:43;4.20;;;2.83;;
5199;SDS011;2619;47.868;11.892;2024-03-23T04:31:09;5.33;;;3.20;;
5199;SDS011;2619;47.868;11.892;2024-03-23T04:33:35;5.70;;;3.30;;
5199;SDS011;2619;47.868;11.892;2024-03-23T04:36:00;5.57;;;3.37;;
5199;SDS011;2619;47.868;11.892;2024-03-23T04:38:26;4.10;;;2.80;;
5199;SDS011;2619;47.868;11.892;2024-03-23T04:40:55;4.53;;;3.10;;
5199;SDS011;2619;47.868;11.892;2024-03-23T04:43:22;4.57;;;3.00;;
5199;SDS011;2619;47.868;11.892;2024-03-23T04:45:48;5.00;;;3.70;;
5199;SDS011;2619;47.868;11.892;2024-03-23T04:48:13;6.40;;;4.77;;
5199;SDS011;2619;47.868;11.892;2024-03-23T04:50:39;7.00;;;4.00;;
5199;SDS011;2619;47.868;11.892;2024-03-23T04:53:06;6.23;;;3.40;;
5199;SDS011;2619;47.868;11.892;2024-03-23T04:55:31;4.90;;;3.50;;
5199;SDS011;2619;47.868;11.892;2024-03-23T04:57:57;5.73;;;3.23;;
5199;SDS011;2619;47.868;11.892;2024-03-23T05:00:23;5.30;;;3.00;;
5199;SDS011;2619;47.868;11.892;2024-03-23T05:02:48;4.00;;;3.30;;
5199;SDS011;2619;47.868;11.892;2024-03-23T05:05:14;5.33;;;3.57;;
5199;SDS011;2619;47.868;11.892;2024-03-23T05:07:39;5.20;;;4.13;;
5199;SDS011;2619;47.868;11.892;2024-03-23T05:10:06;5.60;;;3.93;;
5199;SDS011;2619;47.868;11.892;2024-03-23T05:12:36;5.47;;;4.17;;
5199;SDS011;2619;47.868;11.892;2024-03-23T05:15:02;6.50;;;3.87;;
5199;SDS011;2619;47.868;11.892;2024-03-23T05:17:29;5.03;;;3.50;;
5199;SDS011;2619;47.868;11.892;2024-03-23T05:19:55;5.30;;;3.90;;
5199;SDS011;2619;47.868;11.892;2024-03-23T05:22:22;5.93;;;3.93;;
5199;SDS011;2619;47.868;11.892;2024-03-23T05:24:47;6.30;;;4.20;;
5199;SDS011;2619;47.868;11.892;2024-03-23T05:27:13;8.40;;;6.43;;
5199;SDS011;2619;47.868;11.892;2024-03-23T05:29:39;6.00;;;4.20;;
5199;SDS011;2619;47.868;11.892;2024-03-23T05:32:05;7.97;;;4.63;;
5199;SDS011;2619;47.868;11.892;2024-03-23T05:34:31;6.93;;;4.03;;
5199;SDS011;2619;47.868;11.892;2024-03-23T05:36:57;5.83;;;3.70;;
5199;SDS011;2619;47.868;11.892;2024-03-23T05:39:22;4.90;;;3.90;;
5199;SDS011;2619;47.868;11.892;2024-03-23T05:41:48;4.70;;;3.37;;
5199;SDS011;2619;47.868;11.892;2024-03-23T05:44:14;4.47;;;3.57;;
5199;SDS011;2619;47.868;11.892;2024-03-23T05:46:40;5.83;;;3.63;;
5199;SDS011;2619;47.868;11.892;2024-03-23T05:49:06;3.77;;;2.40;;
5199;SDS011;2619;47.868;11.892;2024-03-23T05:51:31;3.60;;;2.67;;
5199;SDS011;2619;47.868;11.892;2024-03-23T05:53:58;4.20;;;3.03;;
5199;SDS011;2619;47.868;11.892;2024-03-23T05:56:23;4.47;;;2.80;;
5199;SDS011;2619;47.868;11.892;2024-03-23T05:58:51;7.77;;;3.40;;
5199;SDS011;2619;47.868;11.892;2024-03-23T06:01:16;6.90;;;3.90;;
5199;SDS011;2619;47.868;11.892;2024-03-23T06:03:42;5.60;;;3.40;;
5199;SDS011;2619;47.868;11.892;2024-03-23T06:06:08;5.60;;;4.20;;
5199;SDS011;2619;47.868;11.892;2024-03-23T06:08:36;7.00;;;5.00;;
5199;SDS011;2619;47.868;11.892;2024-03-23T06:11:02;7.73;;;6.37;;
5199;SDS011;2619;47.868;11.892;2024-03-23T06:13:29;5.37;;;3.57;;
5199;SDS011;2619;47.868;11.892;2024-03-23T06:15:55;4.33;;;2.60;;
5199;SDS011;2619;47.868;11.892;2024-03-23T06:18:21;4.77;;;3.73;;
5199;SDS011;2619;47.868;11.892;2024-03-23T06:20:47;4.90;;;3.37;;
5199;SDS011;2619;47.868;11.892;2024-03-23T06:23:12;4.00;;;2.87;;
5199;SDS011;2619;47.868;11.892;2024-03-23T06:25:39;3.90;;;2.13;;
5199;SDS011;2619;47.868;11.892;2024-03-23T06:28:05;4.10;;;2.10;;
5199;SDS011;2619;47.868;11.892;2024-03-23T06:30:31;5.87;;;2.60;;
5199;SDS011;2619;47.868;11.892;2024-03-23T06:32:57;4.50;;;2.60;;
5199;SDS011;2619;47.868;11.892;2024-03-23T06:35:22;4.20;;;3.30;;
5199;SDS011;2619;47.868;11.892;2024-03-23T06:37:48;4.60;;;3.20;;
5199;SDS011;2619;47.868;11.892;2024-03-23T06:40:14;5.03;;;3.13;;
5199;SDS011;2619;47.868;11.892;2024-03-23T06:42:39;6.80;;;5.13;;
5199;SDS011;2619;47.868;11.892;2024-03-23T06:45:05;7.43;;;3.63;;
5199;SDS011;2619;47.868;11.892;2024-03-23T06:47:31;6.67;;;3.60;;
5199;SDS011;2619;47.868;11.892;2024-03-23T06:49:58;3.90;;;2.90;;
5199;SDS011;2619;47.868;11.892;2024-03-23T06:52:26;4.00;;;2.77;;
5199;SDS011;2619;47.868;11.892;2024-03-23T06:54:52;5.43;;;3.73;;
5199;SDS011;2619;47.868;11.892;2024-03-23T06:57:18;5.50;;;3.87;;
5199;SDS011;2619;47.868;11.892;2024-03-23T06:59:43;4.20;;;2.50;;
5199;SDS011;2619;47.868;11.892;2024-03-23T07:02:09;5.80;;;4.10;;
5199;SDS011;2619;47.868;11.892;2024-03-23T07:04:35;6.10;;;3.20;;
5199;SDS011;2619;47.868;11.892;2024-03-23T07:07:01;7.13;;;3.13;;
5199;SDS011;2619;47.868;11.892;2024-03-23T07:09:30;10.57;;;8.80;;
5199;SDS011;2619;47.868;11.892;2024-03-23T07:11:56;8.13;;;7.33;;
5199;SDS011;2619;47.868;11.892;2024-03-23T07:14:22;7.47;;;5.00;;
5199;SDS011;2619;47.868;11.892;2024-03-23T07:16:49;5.10;;;2.63;;
5199;SDS011;2619;47.868;11.892;2024-03-23T07:19:15;3.20;;;2.20;;
5199;SDS011;2619;47.868;11.892;2024-03-23T07:21:45;3.97;;;2.30;;
5199;SDS011;2619;47.868;11.892;2024-03-23T07:24:10;4.10;;;2.63;;
5199;SDS011;2619;47.868;11.892;2024-03-23T07:26:36;5.30;;;3.30;;
5199;SDS011;2619;47.868;11.892;2024-03-23T07:29:06;4.87;;;3.17;;
5199;SDS011;2619;47.868;11.892;2024-03-23T07:31:31;7.47;;;2.40;;
5199;SDS011;2619;47.868;11.892;2024-03-23T07:33:57;3.83;;;3.10;;
5199;SDS011;2619;47.868;11.892;2024-03-23T07:36:23;5.30;;;3.30;;
5199;SDS011;2619;47.868;11.892;2024-03-23T07:38:48;7.70;;;4.87;;
5199;SDS011;2619;47.868;11.892;2024-03-23T07:41:17;3.90;;;2.47;;
5199;SDS011;2619;47.868;11.892;2024-03-23T07:43:45;4.60;;;3.40;;
5199;SDS011;2619;47.868;11.892;2024-03-23T07:46:11;4.43;;;3.33;;
5199;SDS011;2619;47.868;11.892;2024-03-23T07:48:37;5.37;;;3.57;;
5199;SDS011;2619;47.868;11.892;2024-03-23T07:51:07;5.30;;;3.90;;
5199;SDS011;2619;47.868;11.892;2024-03-23T07:53:34;4.00;;;3.20;;
5199;SDS011;2619;47.868;11.892;2024-03-23T07:56:10;5.00;;;3.43;;
5199;SDS011;2619;47.868;11.892;2024-03-23T07:58:36;4.67;;;3.67;;
5199;SDS011;2619;47.868;11.892;2024-03-23T08:03:35;6.53;;;3.87;;
5199;SDS011;2619;47.868;11.892;2024-03-23T08:06:14;5.43;;;3.17;;
5199;SDS011;2619;47.868;11.892;2024-03-23T08:08:54;22.83;;;15.53;;
5199;SDS011;2619;47.868;11.892;2024-03-23T08:11:27;4.63;;;3.77;;
5199;SDS011;2619;47.868;11.892;2024-03-23T08:13:56;4.60;;;3.20;;
5199;SDS011;2619;47.868;11.892;2024-03-23T08:16:23;5.13;;;3.47;;
5199;SDS011;2619;47.868;11.892;2024-03-23T08:18:52;6.30;;;3.47;;
5199;SDS011;2619;47.868;11.892;2024-03-23T08:21:17;5.80;;;2.70;;
5199;SDS011;2619;47.868;11.892;2024-03-23T08:23:43;6.13;;;1.60;;
5199;SDS011;2619;47.868;11.892;2024-03-23T08:26:12;3.33;;;1.83;;
5199;SDS011;2619;47.868;11.892;2024-03-23T08:28:40;3.60;;;2.17;;
5199;SDS011;2619;47.868;11.892;2024-03-23T08:31:10;2.83;;;1.80;;
5199;SDS011;2619;47.868;11.892;2024-03-23T08:33:37;3.03;;;2.07;;
5199;SDS011;2619;47.868;11.892;2024-03-23T08:36:07;3.33;;;2.30;;
5199;SDS011;2619;47.868;11.892;2024-03-23T08:38:34;3.53;;;2.33;;
5199;SDS011;2619;47.868;11.892;2024-03-23T08:41:03;4.80;;;1.90;;
5199;SDS011;2619;47.868;11.892;2024-03-23T08:43:36;9.23;;;1.90;;
5199;SDS011;2619;47.868;11.892;2024-03-23T08:46:14;4.67;;;1.53;;
5199;SDS011;2619;47.868;11.892;2024-03-23T08:48:41;2.57;;;1.07;;
5199;SDS011;2619;47.868;11.892;2024-03-23T08:51:12;2.33;;;0.70;;
5199;SDS011;2619;47.868;11.892;2024-03-23T08:53:38;3.93;;;0.83;;
5199;SDS011;2619;47.868;11.892;2024-03-23T08:56:05;1.90;;;0.80;;
5199;SDS011;2619;47.868;11.892;2024-03-23T08:58:32;1.80;;;0.60;;
5199;SDS011;2619;47.868;11.892;2024-03-23T09:03:31;2.40;;;0.80;;
5199;SDS011;2619;47.868;11.892;2024-03-23T09:05:57;2.67;;;1.23;;
5199;SDS011;2619;47.868;11.892;2024-03-23T09:08:23;2.67;;;1.10;;
5199;SDS011;2619;47.868;11.892;2024-03-23T09:10:49;4.63;;;0.80;;
5199;SDS011;2619;47.868;11.892;2024-03-23T09:13:15;1.77;;;0.80;;
5199;SDS011;2619;47.868;11.892;2024-03-23T09:15:51;2.43;;;1.10;;
5199;SDS011;2619;47.868;11.892;2024-03-23T09:18:21;2.73;;;1.00;;
5199;SDS011;2619;47.868;11.892;2024-03-23T09:20:47;2.63;;;1.10;;
5199;SDS011;2619;47.868;11.892;2024-03-23T09:23:12;2.50;;;1.20;;
5199;SDS011;2619;47.868;11.892;2024-03-23T09:25:38;4.77;;;1.80;;
5199;SDS011;2619;47.868;11.892;2024-03-23T09:28:05;2.90;;;1.63;;
5199;SDS011;2619;47.868;11.892;2024-03-23T09:30:32;3.50;;;1.80;;
5199;SDS011;2619;47.868;11.892;2024-03-23T09:32:58;2.73;;;1.60;;
5199;SDS011;2619;47.868;11.892;2024-03-23T09:35:24;4.80;;;1.63;;
5199;SDS011;2619;47.868;11.892;2024-03-23T09:37:49;3.30;;;1.37;;
5199;SDS011;2619;47.868;11.892;2024-03-23T09:40:15;2.90;;;1.63;;
5199;SDS011;2619;47.868;11.892;2024-03-23T09:42:41;3.87;;;2.20;;
5199;SDS011;2619;47.868;11.892;2024-03-23T09:45:18;5.07;;;2.27;;
5199;SDS011;2619;47.868;11.892;2024-03-23T09:47:46;3.00;;;1.20;;
5199;SDS011;2619;47.868;11.892;2024-03-23T09:50:13;2.30;;;1.23;;
5199;SDS011;2619;47.868;11.892;2024-03-23T09:52:39;3.50;;;1.80;;
5199;SDS011;2619;47.868;11.892;2024-03-23T09:55:06;7.30;;;2.53;;
5199;SDS011;2619;47.868;11.892;2024-03-23T09:57:33;11.33;;;3.50;;
5199;SDS011;2619;47.868;11.892;2024-03-23T09:59:59;2.77;;;1.50;;
5199;SDS011;2619;47.868;11.892;2024-03-23T10:02:25;5.63;;;3.57;;
5199;SDS011;2619;47.868;11.892;2024-03-23T10:04:51;3.03;;;1.87;;
5199;SDS011;2619;47.868;11.892;2024-03-23T10:07:20;4.73;;;2.70;;
5199;SDS011;2619;47.868;11.892;2024-03-23T10:09:47;5.97;;;2.17;;
5199;SDS011;2619;47.868;11.892;2024-03-23T10:12:14;3.00;;;2.03;;
5199;SDS011;2619;47.868;11.892;2024-03-23T10:14:41;3.20;;;1.97;;
5199;SDS011;2619;47.868;11.892;2024-03-23T10:17:15;4.53;;;2.63;;
5199;SDS011;2619;47.868;11.892;2024-03-23T10:19:43;3.80;;;1.30;;
5199;SDS011;2619;47.868;11.892;2024-03-23T10:22:09;4.03;;;1.60;;
5199;SDS011;2619;47.868;11.892;2024-03-23T10:24:38;2.90;;;1.13;;
5199;SDS011;2619;47.868;11.892;2024-03-23T10:27:03;2.00;;;0.80;;
5199;SDS011;2619;47.868;11.892;2024-03-23T10:29:29;2.30;;;0.90;;
5199;SDS011;2619;47.868;11.892;2024-03-23T10:31:59;3.10;;;1.00;;
5199;SDS011;2619;47.868;11.892;2024-03-23T10:34:33;2.33;;;0.70;;
5199;SDS011;2619;47.868;11.892;2024-03-23T10:36:59;2.10;;;0.70;;
5199;SDS011;2619;47.868;11.892;2024-03-23T10:39:27;1.70;;;0.50;;
5199;SDS011;2619;47.868;11.892;2024-03-23T10:41:56;2.40;;;0.80;;
5199;SDS011;2619;47.868;11.892;2024-03-23T10:44:22;2.10;;;0.70;;
5199;SDS011;2619;47.868;11.892;2024-03-23T10:46:51;2.13;;;0.77;;
5199;SDS011;2619;47.868;11.892;2024-03-23T10:49:23;2.57;;;1.43;;
5199;SDS011;2619;47.868;11.892;2024-03-23T10:51:50;5.33;;;2.13;;
5199;SDS011;2619;47.868;11.892;2024-03-23T10:54:16;5.10;;;1.63;;
5199;SDS011;2619;47.868;11.892;2024-03-23T10:56:43;2.80;;;1.27;;
5199;SDS011;2619;47.868;11.892;2024-03-23T10:59:10;2.30;;;0.73;;
5199;SDS011;2619;47.868;11.892;2024-03-23T11:01:43;2.07;;;0.90;;
5199;SDS011;2619;47.868;11.892;2024-03-23T11:04:29;2.60;;;0.73;;
5199;SDS011;2619;47.868;11.892;2024-03-23T11:06:58;2.27;;;0.73;;
5199;SDS011;2619;47.868;11.892;2024-03-23T11:09:40;2.40;;;1.00;;
5199;SDS011;2619;47.868;11.892;2024-03-23T11:14:54;2.10;;;0.97;;
5199;SDS011;2619;47.868;11.892;2024-03-23T11:17:30;3.50;;;1.37;;
5199;SDS011;2619;47.868;11.892;2024-03-23T11:20:03;3.80;;;1.13;;
5199;SDS011;2619;47.868;11.892;2024-03-23T11:22:45;4.30;;;2.00;;
5199;SDS011;2619;47.868;11.892;2024-03-23T11:25:30;2.50;;;0.93;;
5199;SDS011;2619;47.868;11.892;2024-03-23T11:27:57;3.03;;;1.10;;
5199;SDS011;2619;47.868;11.892;2024-03-23T11:30:34;1.93;;;0.63;;
5199;SDS011;2619;47.868;11.892;2024-03-23T11:32:59;2.53;;;1.03;;
5199;SDS011;2619;47.868;11.892;2024-03-23T11:35:31;2.53;;;1.00;;
5199;SDS011;2619;47.868;11.892;2024-03-23T11:40:31;2.93;;;0.90;;
5199;SDS011;2619;47.868;11.892;2024-03-23T11:43:01;5.83;;;2.17;;
5199;SDS011;2619;47.868;11.892;2024-03-23T11:45:29;6.60;;;2.90;;
5199;SDS011;2619;47.868;11.892;2024-03-23T11:48:17;5.40;;;2.90;;
5199;SDS011;2619;47.868;11.892;2024-03-23T11:50:44;2.97;;;1.47;;
5199;SDS011;2619;47.868;11.892;2024-03-23T11:58:10;2.17;;;0.90;;
5199;SDS011;2619;47.868;11.892;2024-03-23T12:00:36;2.50;;;0.87;;
5199;SDS011;2619;47.868;11.892;2024-03-23T12:03:03;3.20;;;1.43;;
5199;SDS011;2619;47.868;11.892;2024-03-23T12:05:29;3.30;;;1.23;;
5199;SDS011;2619;47.868;11.892;2024-03-23T12:10:48;4.40;;;1.40;;
5199;SDS011;2619;47.868;11.892;2024-03-23T12:13:20;2.93;;;1.20;;
5199;SDS011;2619;47.868;11.892;2024-03-23T12:15:48;5.80;;;1.50;;
5199;SDS011;2619;47.868;11.892;2024-03-23T12:18:16;2.60;;;1.20;;
5199;SDS011;2619;47.868;11.892;2024-03-23T12:20:42;2.50;;;1.20;;
5199;SDS011;2619;47.868;11.892;2024-03-23T12:23:08;5.03;;;1.83;;
5199;SDS011;2619;47.868;11.892;2024-03-23T12:25:37;3.80;;;1.00;;
5199;SDS011;2619;47.868;11.892;2024-03-23T12:28:04;3.90;;;1.37;;
5199;SDS011;2619;47.868;11.892;2024-03-23T12:30:31;3.23;;;1.40;;
5199;SDS011;2619;47.868;11.892;2024-03-23T12:32:58;2.80;;;1.13;;
5199;SDS011;2619;47.868;11.892;2024-03-23T12:35:23;5.97;;;1.43;;
5199;SDS011;2619;47.868;11.892;2024-03-23T12:37:49;5.07;;;1.20;;
5199;SDS011;2619;47.868;11.892;2024-03-23T12:40:15;3.40;;;1.37;;
5199;SDS011;2619;47.868;11.892;2024-03-23T12:42:40;3.40;;;1.63;;
5199;SDS011;2619;47.868;11.892;2024-03-23T12:45:06;6.60;;;1.70;;
5199;SDS011;2619;47.868;11.892;2024-03-23T12:47:32;2.40;;;1.33;;
5199;SDS011;2619;47.868;11.892;2024-03-23T12:49:58;3.27;;;1.20;;
5199;SDS011;2619;47.868;11.892;2024-03-23T12:52:23;3.80;;;1.37;;
5199;SDS011;2619;47.868;11.892;2024-03-23T12:54:53;2.47;;;0.70;;
5199;SDS011;2619;47.868;11.892;2024-03-23T12:57:25;2.43;;;1.00;;
5199;SDS011;2619;47.868;11.892;2024-03-23T12:59:51;3.07;;;0.80;;
5199;SDS011;2619;47.868;11.892;2024-03-23T13:02:18;2.50;;;0.90;;
5199;SDS011;2619;47.868;11.892;2024-03-23T13:04:54;2.10;;;0.80;;
5199;SDS011;2619;47.868;11.892;2024-03-23T13:07:20;2.20;;;1.00;;
5199;SDS011;2619;47.868;11.892;2024-03-23T13:09:46;2.50;;;1.00;;
5199;SDS011;2619;47.868;11.892;2024-03-23T13:12:14;2.30;;;0.93;;
5199;SDS011;2619;47.868;11.892;2024-03-23T13:14:40;2.30;;;1.03;;
5199;SDS011;2619;47.868;11.892;2024-03-23T13:17:06;2.30;;;1.30;;
5199;SDS011;2619;47.868;11.892;2024-03-23T13:19:32;3.17;;;1.77;;
5199;SDS011;2619;47.868;11.892;2024-03-23T13:21:58;2.50;;;1.00;;
5199;SDS011;2619;47.868;11.892;2024-03-23T13:24:25;3.30;;;1.20;;
5199;SDS011;2619;47.868;11.892;2024-03-23T13:26:51;4.10;;;1.10;;
5199;SDS011;2619;47.868;11.892;2024-03-23T13:29:21;2.63;;;1.10;;
5199;SDS011;2619;47.868;11.892;2024-03-23T13:31:47;5.53;;;1.20;;
5199;SDS011;2619;47.868;11.892;2024-03-23T13:34:14;2.57;;;0.80;;
5199;SDS011;2619;47.868;11.892;2024-03-23T13:36:45;2.00;;;0.90;;
5199;SDS011;2619;47.868;11.892;2024-03-23T13:39:11;2.97;;;1.20;;
5199;SDS011;2619;47.868;11.892;2024-03-23T13:44:05;3.03;;;1.10;;
5199;SDS011;2619;47.868;11.892;2024-03-23T13:46:31;3.83;;;1.70;;
5199;SDS011;2619;47.868;11.892;2024-03-23T13:48:57;4.33;;;1.77;;
5199;SDS011;2619;47.868;11.892;2024-03-23T13:51:23;4.53;;;1.73;;
5199;SDS011;2619;47.868;11.892;2024-03-23T13:53:51;3.90;;;1.67;;
5199;SDS011;2619;47.868;11.892;2024-03-23T13:56:18;3.57;;;1.67;;
5199;SDS011;2619;47.868;11.892;2024-03-23T13:58:43;3.50;;;1.37;;
5199;SDS011;2619;47.868;11.892;2024-03-23T14:01:11;4.07;;;1.57;;
5199;SDS011;2619;47.868;11.892;2024-03-23T14:03:38;3.60;;;1.40;;
5199;SDS011;2619;47.868;11.892;2024-03-23T14:06:03;3.50;;;1.67;;
5199;SDS011;2619;47.868;11.892;2024-03-23T14:08:29;4.47;;;2.00;;
5199;SDS011;2619;47.868;11.892;2024-03-23T14:10:58;3.17;;;1.53;;
5199;SDS011;2619;47.868;11.892;2024-03-23T14:13:23;2.50;;;1.40;;
5199;SDS011;2619;47.868;11.892;2024-03-23T14:15:52;3.67;;;1.40;;
5199;SDS011;2619;47.868;11.892;2024-03-23T14:18:18;3.87;;;1.80;;
5199;SDS011;2619;47.868;11.892;2024-03-23T14:20:44;3.00;;;1.60;;
5199;SDS011;2619;47.868;11.892;2024-03-23T14:23:10;5.00;;;1.83;;
5199;SDS011;2619;47.868;11.892;2024-03-23T14:25:36;3.83;;;1.40;;
5199;SDS011;2619;47.868;11.892;2024-03-23T14:28:01;2.80;;;1.20;;
5199;SDS011;2619;47.868;11.892;2024-03-23T14:30:27;4.03;;;1.90;;
5199;SDS011;2619;47.868;11.892;2024-03-23T14:32:52;2.90;;;1.33;;
5199;SDS011;2619;47.868;11.892;2024-03-23T14:35:18;5.97;;;1.47;;
5199;SDS011;2619;47.868;11.892;2024-03-23T14:37:43;4.20;;;1.73;;
5199;SDS011;2619;47.868;11.892;2024-03-23T14:40:12;4.53;;;1.40;;
5199;SDS011;2619;47.868;11.892;2024-03-23T14:42:37;4.10;;;2.17;;
5199;SDS011;2619;47.868;11.892;2024-03-23T14:45:04;3.60;;;1.60;;
5199;SDS011;2619;47.868;11.892;2024-03-23T14:47:30;3.30;;;1.77;;
5199;SDS011;2619;47.868;11.892;2024-03-23T14:49:56;3.60;;;1.60;;
5199;SDS011;2619;47.868;11.892;2024-03-23T14:52:23;9.50;;;2.07;;
5199;SDS011;2619;47.868;11.892;2024-03-23T14:54:49;3.57;;;1.93;;
5199;SDS011;2619;47.868;11.892;2024-03-23T14:57:14;5.43;;;2.43;;
5199;SDS011;2619;47.868;11.892;2024-03-23T14:59:40;5.10;;;3.07;;
5199;SDS011;2619;47.868;11.892;2024-03-23T15:02:09;7.93;;;4.00;;
5199;SDS011;2619;47.868;11.892;2024-03-23T15:04:34;5.60;;;2.40;;
5199;SDS011;2619;47.868;11.892;2024-03-23T15:07:01;4.17;;;2.30;;
5199;SDS011;2619;47.868;11.892;2024-03-23T15:09:27;4.63;;;2.50;;
5199;SDS011;2619;47.868;11.892;2024-03-23T15:11:52;4.20;;;3.10;;
5199;SDS011;2619;47.868;11.892;2024-03-23T15:14:20;6.30;;;3.03;;
5199;SDS011;2619;47.868;11.892;2024-03-23T15:16:45;7.90;;;3.97;;
5199;SDS011;2619;47.868;11.892;2024-03-23T15:19:13;5.90;;;3.30;;
5199;SDS011;2619;47.868;11.892;2024-03-23T15:21:40;6.80;;;2.73;;
5199;SDS011;2619;47.868;11.892;2024-03-23T15:24:05;7.87;;;3.20;;
5199;SDS011;2619;47.868;11.892;2024-03-23T15:26:31;6.83;;;2.93;;
5199;SDS011;2619;47.868;11.892;2024-03-23T15:28:57;6.40;;;3.00;;
5199;SDS011;2619;47.868;11.892;2024-03-23T15:31:23;5.20;;;3.10;;
5199;SDS011;2619;47.868;11.892;2024-03-23T15:33:49;11.93;;;3.20;;
5199;SDS011;2619;47.868;11.892;2024-03-23T15:36:14;8.50;;;3.53;;
5199;SDS011;2619;47.868;11.892;2024-03-23T15:38:40;5.00;;;3.13;;
5199;SDS011;2619;47.868;11.892;2024-03-23T15:41:06;5.07;;;3.13;;
5199;SDS011;2619;47.868;11.892;2024-03-23T15:43:32;6.83;;;3.33;;
5199;SDS011;2619;47.868;11.892;2024-03-23T15:45:58;7.60;;;3.13;;
5199;SDS011;2619;47.868;11.892;2024-03-23T15:48:25;5.43;;;3.17;;
5199;SDS011;2619;47.868;11.892;2024-03-23T15:50:56;6.17;;;4.00;;
5199;SDS011;2619;47.868;11.892;2024-03-23T15:53:23;8.67;;;3.10;;
5199;SDS011;2619;47.868;11.892;2024-03-23T15:55:56;6.53;;;3.90;;
5199;SDS011;2619;47.868;11.892;2024-03-23T15:58:22;7.23;;;3.90;;
5199;SDS011;2619;47.868;11.892;2024-03-23T16:00:58;6.07;;;3.60;;
5199;SDS011;2619;47.868;11.892;2024-03-23T16:03:25;7.53;;;3.03;;
5199;SDS011;2619;47.868;11.892;2024-03-23T16:05:53;7.70;;;4.60;;
5199;SDS011;2619;47.868;11.892;2024-03-23T16:08:19;5.63;;;3.10;;
5199;SDS011;2619;47.868;11.892;2024-03-23T16:10:45;7.17;;;3.47;;
5199;SDS011;2619;47.868;11.892;2024-03-23T16:13:11;5.03;;;2.30;;